David Dekker

ARKEA-B&B HOTELS, Nederland, 26 år

Pro Cycling Manager

Informasjon

David Dekker er en 26 år gammel profesjonell syklist fra Nederland (født 2.februar 1998), som sykler for ARKEA-B&B HOTELS (UCI WorldTeam). Han har vunnet 4 UCI ritt, og er nummer 769 på UCI rankingen.

AlleLandeveiSykkelcross

2024 2023 2022 2021 2020 2019 2018 2017 2016 2015

ARKEA-B&B HOTELS (WorldTour) UCI Ranking: 769 (88pts)
Alle Flatt Kupert Fjell Tempo Brosten
Dato Pos GC Ritt UCI
23.06 DNF Netherlands RR | CN 2024-06-23Vis mer
26.01 123 Trofeo Serra Tramuntana | 1.1 2024-01-26Vis mer
25.01 100 Trofeo Ses Salines - Felanitx | 1.1 2024-01-25Vis mer
28.01 14 Trofeo Palma | 1.1 2024-01-285Vis mer
11.02 Tour de La Provence | 2.1 2024-02-11 Vis mer
11.02 DNF Tour de La Provence | Sammenlagt 2024-02-11
27.02 67 Le Samyn | 1.1 2024-02-27Vis mer
09.06 ZLM Tour | 2.1 2024-06-09 Vis mer
09.06 14 ZLM Tour | Sammenlagt 2024-06-095
26.05 Giro d'Italia | 2.UWT 2024-05-26 Vis mer
26.05 DNF Giro d'Italia | Sammenlagt 2024-05-26
07.04 DNF Paris-Roubaix | 1.UWT 2024-04-07Vis mer
05.04 Région Pays de la Loire Tour | 2.1 2024-04-05 Vis mer
05.04 DNF Région Pays de la Loire Tour | Sammenlagt 2024-04-05
31.03 DNF Ronde van Vlaanderen | 1.UWT 2024-03-31Vis mer
27.03 109 Dwars door Vlaanderen | 1.UWT 2024-03-27Vis mer
24.03 66 Gent - Wevelgem | 1.UWT 2024-03-24Vis mer
20.03 97 Classic Brugge-De Panne | 1.UWT 2024-03-20Vis mer
15.03 49 Bredene Koksijde Classic | 1.Pro 2024-03-15Vis mer
13.03 31 Nokere Koerse | 1.Pro 2024-03-133Vis mer
03.03 3 GP Jean-Pierre Monseré | 1.1 2024-03-0370Vis mer
02.03 39 GP Criquielion | 1.1 2024-03-02Vis mer
09.06 14 ZLM Tour | Poeng 2024-06-09
09.06 3814 ZLM Tour | 5.etappe 2024-06-09
08.06 713 ZLM Tour | 4.etappe 2024-06-08
07.06 2315 ZLM Tour | 3.etappe 2024-06-07
06.06 1917 ZLM Tour | 2.etappe 2024-06-06
05.06 1717 ZLM Tour | 1.etappe 2024-06-05
22.05 DNF Giro d'Italia | 17.etappe 2024-05-22
21.05 145146 Giro d'Italia | 16.etappe 2024-05-21
19.05 148150 Giro d'Italia | 15.etappe 2024-05-19
18.05 138151 Giro d'Italia | 14.etappe 2024-05-18
17.05 90153 Giro d'Italia | 13.etappe 2024-05-17
16.05 152154 Giro d'Italia | 12.etappe 2024-05-16
15.05 15152 Giro d'Italia | 11.etappe 2024-05-152
14.05 129156 Giro d'Italia | 10.etappe 2024-05-14
12.05 153160 Giro d'Italia | 9.etappe 2024-05-12
11.05 127161 Giro d'Italia | 8.etappe 2024-05-11
10.05 104158 Giro d'Italia | 7.etappe 2024-05-10
09.05 146158 Giro d'Italia | 6.etappe 2024-05-09
08.05 23156 Giro d'Italia | 5.etappe 2024-05-08
07.05 75164 Giro d'Italia | 4.etappe 2024-05-07
06.05 117167 Giro d'Italia | 3.etappe 2024-05-06
05.05 152175 Giro d'Italia | 2.etappe 2024-05-05
04.05 176176 Giro d'Italia | 1.etappe 2024-05-04
05.04 DNF Région Pays de la Loire Tour | 4.etappe 2024-04-05
04.04 1370 Région Pays de la Loire Tour | 3.etappe 2024-04-04
03.04 7873 Région Pays de la Loire Tour | 2.etappe 2024-04-03
02.04 33 Région Pays de la Loire Tour | 1.etappe 2024-04-023
11.02 DNF Tour de La Provence | 4.etappe 2024-02-11
10.02 6154 Tour de La Provence | 3.etappe 2024-02-10
09.02 815 Tour de La Provence | 2.etappe 2024-02-09
08.02 1414 Tour de La Provence | 1.etappe 2024-02-08